Map

Track Data

SID SEASON NUMBER BASIN SUBBASIN NAME ISO_TIME NATURE LAT LON WMO_WIND WMO_PRES WMO_AGENCY TRACK_TYPE DIST2LAND LANDFALL IFLAG USA_AGENCY USA_ATCF_ID USA_LAT USA_LON USA_RECORD USA_STATUS USA_WIND USA_PRES USA_SSHS USA_R34_NE USA_R34_SE USA_R34_SW USA_R34_NW USA_R50_NE USA_R50_SE USA_R50_SW USA_R50_NW USA_R64_NE USA_R64_SE USA_R64_SW USA_R64_NW USA_POCI USA_ROCI USA_RMW USA_EYE TOKYO_LAT TOKYO_LON TOKYO_GRADE TOKYO_WIND TOKYO_PRES TOKYO_R50_DIR TOKYO_R50_LONG TOKYO_R50_SHORT TOKYO_R30_DIR TOKYO_R30_LONG TOKYO_R30_SHORT TOKYO_LAND CMA_LAT CMA_LON CMA_CAT CMA_WIND CMA_PRES HKO_LAT HKO_LON HKO_CAT HKO_WIND HKO_PRES NEWDELHI_LAT NEWDELHI_LON NEWDELHI_GRADE NEWDELHI_WIND NEWDELHI_PRES NEWDELHI_CI NEWDELHI_DP NEWDELHI_POCI REUNION_LAT REUNION_LON REUNION_TYPE REUNION_WIND REUNION_PRES REUNION_TNUM REUNION_CI REUNION_RMW REUNION_R34_NE REUNION_R34_SE REUNION_R34_SW REUNION_R34_NW REUNION_R50_NE REUNION_R50_SE REUNION_R50_SW REUNION_R50_NW REUNION_R64_NE REUNION_R64_SE REUNION_R64_SW REUNION_R64_NW BOM_LAT BOM_LON BOM_TYPE BOM_WIND BOM_PRES BOM_TNUM BOM_CI BOM_RMW BOM_R34_NE BOM_R34_SE BOM_R34_SW BOM_R34_NW BOM_R50_NE BOM_R50_SE BOM_R50_SW BOM_R50_NW BOM_R64_NE BOM_R64_SE BOM_R64_SW BOM_R64_NW BOM_ROCI BOM_POCI BOM_EYE BOM_POS_METHOD BOM_PRES_METHOD NADI_LAT NADI_LON NADI_CAT NADI_WIND NADI_PRES WELLINGTON_LAT WELLINGTON_LON WELLINGTON_WIND WELLINGTON_PRES DS824_LAT DS824_LON DS824_STAGE DS824_WIND DS824_PRES TD9636_LAT TD9636_LON TD9636_STAGE TD9636_WIND TD9636_PRES TD9635_LAT TD9635_LON TD9635_WIND TD9635_PRES TD9635_ROCI NEUMANN_LAT NEUMANN_LON NEUMANN_CLASS NEUMANN_WIND NEUMANN_PRES MLC_LAT MLC_LON MLC_CLASS MLC_WIND MLC_PRES USA_GUST BOM_GUST BOM_GUST_PER REUNION_GUST REUNION_GUST_PER USA_SEAHGT USA_SEARAD_NE USA_SEARAD_SE USA_SEARAD_SW USA_SEARAD_NW STORM_SPEED STORM_DIR
1883042S09087 1883 6 SI MM NOT_NAMED 1883-02-11 06:00:00 NR -8.60000 87.4000 main 1490 1490 _____O________ -1 -8.60000 87.4000 99 9.90000 1 270
1883042S09087 1883 6 SI MM NOT_NAMED 1883-02-11 09:00:00 NR -8.59989 87.3456 main 1499 1499 _____P________ -1 -8.59989 87.3456 99 1 259
1883042S09087 1883 6 SI MM NOT_NAMED 1883-02-11 12:00:00 NR -8.61646 87.3082 main 1499 1499 _____P________ -1 -8.61646 87.3082 99 1 213
1883042S09087 1883 6 SI MM NOT_NAMED 1883-02-11 15:00:00 NR -8.66636 87.3049 main 1505 1505 _____P________ -1 -8.66636 87.3049 99 2 168
1883042S09087 1883 6 SI MM NOT_NAMED 1883-02-11 18:00:00 NR -8.76627 87.3526 main 1501 1498 _____P________ -1 -8.76627 87.3526 99 3 149
1883042S09087 1883 6 SI MM NOT_NAMED 1883-02-11 21:00:00 NR -8.93287 87.4685 main 1498 1495 _____P________ -1 -8.93287 87.4685 99 5 143
1883042S09087 1883 6 SI MM NOT_NAMED 1883-02-12 00:00:00 NR -9.18286 87.6699 main 1497 1489 _____P________ -1 -9.18286 87.6699 99 8 140
1883042S09087 1883 6 SI MM NOT_NAMED 1883-02-12 03:00:00 NR -9.53299 87.9744 main 1489 1485 _____P________ -1 -9.53299 87.9744 99 11 139
1883042S09087 1883 6 SI MM NOT_NAMED 1883-02-12 06:00:00 NR -10.0000 88.4000 main 1487 1481 _____O________ -1 -10.0000 88.4000 99 9.90000 14 138
1883042S09087 1883 6 SI MM NOT_NAMED 1883-02-12 09:00:00 NR -10.5921 88.9572 main 1480 1479 _____P________ -1 -10.5921 88.9572 99 18 137
1883042S09087 1883 6 SI MM NOT_NAMED 1883-02-12 12:00:00 NR -11.2837 89.6234 main 1487 1479 _____P________ -1 -11.2837 89.6234 99 20 136
1883042S09087 1883 6 SI WA NOT_NAMED 1883-02-12 15:00:00 NR -12.0403 90.3673 main 1487 1487 _____P________ -1 -12.0403 90.3673 99 22 136
1883042S09087 1883 6 SI WA NOT_NAMED 1883-02-12 18:00:00 NR -12.8275 91.1568 main 1505 1505 _____P________ -1 -12.8275 91.1568 99 22 135
1883042S09087 1883 6 SI WA NOT_NAMED 1883-02-12 21:00:00 NR -13.6107 91.9590 main 1534 1534 _____P________ -1 -13.6107 91.9590 99 22 135
1883042S09087 1883 6 SI WA NOT_NAMED 1883-02-13 00:00:00 NR -14.3560 92.7400 main 1570 1559 _____P________ -1 -14.3560 92.7400 99 20 134
1883042S09087 1883 6 SI WA NOT_NAMED 1883-02-13 03:00:00 NR -15.0300 93.4653 main 1562 1560 _____P________ -1 -15.0300 93.4653 99 18 133
1883042S09087 1883 6 SI WA NOT_NAMED 1883-02-13 06:00:00 NR -15.6000 94.1000 main 1560 1547 _____O________ -1 -15.6000 94.1000 99 9.90000 15 132
1883042S09087 1883 6 SI WA NOT_NAMED 1883-02-13 09:00:00 NR -16.0425 94.6170 main 1547 1537 _____P________ -1 -16.0425 94.6170 99 12 131
1883042S09087 1883 6 SI WA NOT_NAMED 1883-02-13 12:00:00 NR -16.3670 95.0229 main 1545 1529 _____P________ -1 -16.3670 95.0229 99 9 129
1883042S09087 1883 6 SI WA NOT_NAMED 1883-02-13 15:00:00 NR -16.5913 95.3330 main 1537 1523 _____P________ -1 -16.5913 95.3330 99 6 125
1883042S09087 1883 6 SI WA NOT_NAMED 1883-02-13 18:00:00 NR -16.7324 95.5630 main 1523 1523 _____P________ -1 -16.7324 95.5630 99 4 120
1883042S09087 1883 6 SI WA NOT_NAMED 1883-02-13 21:00:00 NR -16.8071 95.7287 main 1523 1516 _____P________ -1 -16.8071 95.7287 99 3 110
1883042S09087 1883 6 SI WA NOT_NAMED 1883-02-14 00:00:00 NR -16.8323 95.8460 main 1516 1508 _____P________ -1 -16.8323 95.8460 99 2 95
1883042S09087 1883 6 SI WA NOT_NAMED 1883-02-14 03:00:00 NR -16.8244 95.9311 main 1508 1501 _____P________ -1 -16.8244 95.9311 99 2 78
1883042S09087 1883 6 SI WA NOT_NAMED 1883-02-14 06:00:00 NR -16.8000 96.0000 main 1501 _____O________ -1 -16.8000 96.0000 99 9.90000 1 69

About IBTrACS Database

This database is a web-friendly format of International Best Track Archive for Climate Stewardship (IBTrACS), a global best track data archive curated by NOAA dating back to 1842.

Updated: 2021-10-21